.
WxDataArchive / Data Records for 2011-10-29
2011-10-28 October 2011 2011-10-30

Data Records for Saturday, 29 October 2011

Time	Temp	Chill	HIndex	Humid	Dewpt	 Wind 	HiWind	WindDir	Rain 	Barom 
-----	----	-----	------	-----	-----	------	------	-------	-----	----- 
00:00	42.9	42.9	42.9	63	31.2	0	0	---	0.00	30.102 
00:05	43.1	43.1	43.1	63	31.4	0	1	68	0.00	30.102 
00:10	43.2	43.2	43.2	65	32.2	0	1	68	0.00	30.102 
00:15	43.2	43.2	43.2	67	33.0	0	1	68	0.00	30.094 
00:20	43.1	43.1	43.1	70	34.0	0	0	---	0.00	30.094 
00:25	42.9	42.9	42.9	72	34.5	0	0	---	0.00	30.094 
00:30	42.8	42.8	42.8	75	35.4	0	0	---	0.01	30.092 
00:35	42.6	42.6	42.6	77	35.9	0	0	---	0.00	30.092 
00:40	42.3	42.3	42.3	77	35.6	0	4	68	0.00	30.092 
00:45	42.1	42.1	42.1	78	35.7	0	0	---	0.01	30.081 
00:50	41.9	41.9	41.9	79	35.9	0	0	---	0.00	30.081 
00:55	41.6	41.6	41.6	76	34.6	0	2	68	0.00	30.081 
01:00	41.6	41.6	41.6	76	34.6	0	0	---	0.00	30.081 
01:05	41.3	41.3	41.3	75	34.0	0	0	---	0.00	30.081 
01:10	41.1	41.1	41.1	74	33.5	0	0	---	0.00	30.081 
01:15	40.8	40.8	40.8	74	33.2	0	0	---	0.00	30.083 
01:20	40.5	40.5	40.5	75	33.2	0	0	---	0.00	30.083 
01:25	40.2	40.2	40.2	75	32.9	0	0	---	0.00	30.083 
01:30	39.9	39.9	39.9	76	33.0	0	0	---	0.00	30.080 
01:35	39.6	39.6	39.6	76	32.7	0	0	---	0.00	30.080 
01:40	39.3	39.3	39.3	77	32.7	0	0	---	0.00	30.080 
01:45	39.2	39.2	39.2	79	33.2	0	0	---	0.00	30.080 
01:50	39.1	39.1	39.1	79	33.1	0	0	---	0.00	30.080 
01:55	38.9	38.9	38.9	80	33.3	0	0	---	0.00	30.080 
02:00	38.6	38.6	38.6	80	33.0	0	0	---	0.00	30.078 
02:05	38.5	38.5	38.5	81	33.2	0	0	---	0.00	30.078 
02:10	38.3	38.3	38.3	81	33.0	0	0	---	0.00	30.078 
02:15	38.3	38.3	38.3	80	32.7	0	0	---	0.00	30.078 
02:20	38.3	38.3	38.3	80	32.7	0	0	---	0.00	30.078 
02:25	38.2	38.2	38.2	79	32.3	0	0	---	0.00	30.078 
02:30	38.3	38.3	38.3	80	32.7	0	0	---	0.00	30.072 
02:35	38.3	38.3	38.3	80	32.7	0	0	---	0.00	30.072 
02:40	38.3	38.3	38.3	80	32.7	0	0	---	0.00	30.072 
02:45	38.2	38.2	38.2	80	32.6	0	0	---	0.00	30.066 
02:50	38.2	38.2	38.2	79	32.3	0	0	---	0.00	30.066 
02:55	38.0	38.0	38.0	79	32.1	0	0	---	0.00	30.066 
03:00	38.0	38.0	38.0	79	32.1	0	0	---	0.00	30.065 
03:05	37.9	37.9	37.9	80	32.3	0	0	---	0.00	30.065 
03:10	37.8	37.8	37.8	81	32.5	0	0	---	0.00	30.065 
03:15	37.6	37.6	37.6	81	32.3	0	0	---	0.00	30.065 
03:20	37.5	37.5	37.5	82	32.5	0	0	---	0.00	30.065 
03:25	37.5	37.5	37.5	82	32.5	0	0	---	0.00	30.065 
03:30	37.5	37.5	37.5	82	32.5	0	0	---	0.00	30.063 
03:35	37.5	37.5	37.5	83	32.8	0	0	---	0.00	30.063 
03:40	37.5	37.5	37.5	83	32.8	0	0	---	0.00	30.063 
03:45	37.5	37.5	37.5	83	32.8	0	0	---	0.00	30.062 
03:50	37.6	37.6	37.6	84	33.2	0	0	---	0.00	30.062 
03:55	38.0	38.0	38.0	83	33.3	0	1	68	0.00	30.062 
04:00	38.3	38.3	38.3	83	33.6	0	1	68	0.00	30.062 
04:05	38.5	38.5	38.5	82	33.5	0	1	68	0.00	30.062 
04:10	38.6	38.6	38.6	82	33.6	0	1	68	0.00	30.062 
04:15	38.8	38.8	38.8	81	33.5	0	1	68	0.00	30.054 
04:20	38.8	38.8	38.8	81	33.5	0	1	68	0.00	30.054 
04:25	38.8	38.8	38.8	81	33.5	0	1	68	0.00	30.054 
04:30	38.9	38.9	38.9	81	33.6	0	1	68	0.00	30.048 
04:35	38.9	38.9	38.9	80	33.3	0	1	68	0.00	30.048 
04:40	38.9	38.9	38.9	80	33.3	0	1	68	0.00	30.048 
04:45	39.1	39.1	39.1	80	33.5	0	2	68	0.00	30.047 
04:50	39.2	39.2	39.2	80	33.6	0	1	68	0.00	30.047 
04:55	39.2	39.2	39.2	80	33.6	0	1	68	0.00	30.047 
05:00	39.3	39.3	39.3	80	33.7	0	2	68	0.00	30.046 
05:05	39.5	39.5	39.5	80	33.9	0	1	68	0.00	30.046 
05:10	39.6	39.6	39.6	79	33.6	0	1	68	0.00	30.046 
05:15	39.9	39.9	39.9	79	33.9	0	2	68	0.00	30.047 
05:20	40.1	40.1	40.1	78	33.8	0	2	68	0.00	30.047 
05:25	40.2	40.2	40.2	78	33.9	0	2	68	0.00	30.047 
05:30	40.2	40.2	40.2	77	33.6	0	1	68	0.00	30.048 
05:35	40.3	40.3	40.3	77	33.7	0	1	68	0.00	30.048 
05:40	40.3	40.3	40.3	77	33.7	0	2	68	0.00	30.048 
05:45	40.3	40.3	40.3	77	33.7	0	1	68	0.00	30.048 
05:50	40.3	40.3	40.3	77	33.7	0	2	68	0.00	30.048 
05:55	40.5	40.5	40.5	77	33.9	0	1	68	0.00	30.048 
06:00	40.5	40.5	40.5	77	33.9	0	0	---	0.00	30.047 
06:05	40.6	40.6	40.6	77	34.0	0	1	68	0.00	30.047 
06:10	40.6	40.6	40.6	77	34.0	0	0	---	0.00	30.047 
06:15	40.6	40.6	40.6	77	34.0	0	1	68	0.00	30.049 
06:20	40.6	40.6	40.6	77	34.0	0	1	68	0.00	30.049 
06:25	40.6	40.6	40.6	77	34.0	0	0	---	0.00	30.049 
06:30	40.5	40.5	40.5	77	33.9	0	1	68	0.00	30.047 
06:35	40.3	40.3	40.3	77	33.7	0	1	68	0.00	30.047 
06:40	40.3	40.3	40.3	77	33.7	0	1	68	0.00	30.047 
06:45	40.2	40.2	40.2	77	33.6	0	0	---	0.00	30.039 
06:50	40.2	40.2	40.2	77	33.6	0	0	---	0.00	30.039 
06:55	40.1	40.1	40.1	78	33.8	0	0	---	0.00	30.039 
07:00	39.9	39.9	39.9	78	33.6	0	0	---	0.00	30.037 
07:05	39.8	39.8	39.8	78	33.5	0	0	---	0.00	30.037 
07:10	39.5	39.5	39.5	78	33.2	0	0	---	0.00	30.037 
07:15	39.2	39.2	39.2	79	33.2	0	0	---	0.00	30.036 
07:20	38.9	38.9	38.9	79	33.0	0	0	---	0.00	30.036 
07:25	38.5	38.5	38.5	80	32.9	0	0	---	0.00	30.036 
07:30	38.2	38.2	38.2	80	32.6	0	0	---	0.00	30.041 
07:35	38.0	38.0	38.0	81	32.7	0	0	---	0.00	30.041 
07:40	37.8	37.8	37.8	82	32.8	0	0	---	0.00	30.041 
07:45	37.5	37.5	37.5	83	32.8	0	0	---	0.00	30.042 
07:50	37.2	37.2	37.2	84	32.8	0	0	---	0.00	30.042 
07:55	37.0	37.0	37.0	84	32.6	0	0	---	0.00	30.042 
08:00	36.9	36.9	36.9	85	32.8	0	0	---	0.00	30.040 
08:05	36.9	36.9	36.9	85	32.8	0	0	---	0.00	30.040 
08:10	36.8	36.8	36.8	86	33.0	0	0	---	0.00	30.040 
08:15	36.8	36.8	36.8	86	33.0	0	0	---	0.00	30.042 
08:20	36.8	36.8	36.8	87	33.3	0	0	---	0.00	30.042 
08:25	36.8	36.8	36.8	87	33.3	0	0	---	0.00	30.042 
08:30	36.9	36.9	36.9	87	33.4	0	0	---	0.00	30.042 
08:35	36.9	36.9	36.9	87	33.4	0	0	---	0.00	30.042 
08:40	36.9	36.9	36.9	87	33.4	0	0	---	0.00	30.042 
08:45	36.9	36.9	36.9	87	33.4	0	0	---	0.00	30.048 
08:50	36.9	36.9	36.9	88	33.7	0	0	---	0.00	30.048 
08:55	37.0	37.0	37.0	88	33.8	0	0	---	0.00	30.048 
09:00	37.2	37.2	37.2	88	34.0	0	0	---	0.00	30.052 
09:05	37.3	37.3	37.3	88	34.1	0	0	---	0.00	30.052 
09:10	37.6	37.6	37.6	88	34.4	0	0	---	0.00	30.052 
09:15	37.9	37.9	37.9	88	34.7	0	1	68	0.00	30.054 
09:20	38.2	38.2	38.2	88	35.0	0	1	68	0.00	30.054 
09:25	38.5	38.5	38.5	88	35.3	0	1	68	0.00	30.054 
09:30	38.8	38.8	38.8	87	35.3	0	0	---	0.00	30.052 
09:35	38.9	38.9	38.9	86	35.1	0	1	68	0.00	30.052 
09:40	39.2	39.2	39.2	86	35.4	0	1	68	0.00	30.052 
09:45	39.3	39.3	39.3	85	35.2	0	0	---	0.00	30.051 
09:50	39.6	39.6	39.6	84	35.2	0	1	68	0.00	30.051 
09:55	39.9	39.9	39.9	84	35.5	0	1	68	0.00	30.051 
10:00	40.2	40.2	40.2	83	35.5	0	1	68	0.00	30.052 
10:05	40.5	40.5	40.5	82	35.4	0	1	68	0.00	30.052 
10:10	40.6	40.6	40.6	81	35.2	0	1	68	0.00	30.052 
10:15	40.8	40.8	40.8	80	35.1	0	2	68	0.00	30.051 
10:20	40.9	40.9	40.9	79	34.9	0	1	68	0.00	30.051 
10:25	41.1	41.1	41.1	78	34.8	0	2	68	0.00	30.051 
10:30	41.2	41.2	41.2	78	34.9	0	1	68	0.00	30.052 
10:35	41.5	41.5	41.5	78	35.2	0	2	68	0.00	30.052 
10:40	41.8	41.8	41.8	78	35.5	0	1	68	0.00	30.052 
10:45	42.2	42.2	42.2	78	35.8	0	1	68	0.00	30.053 
10:50	42.5	42.5	42.5	76	35.5	0	1	68	0.00	30.053 
10:55	42.5	42.5	42.5	75	35.1	0	2	68	0.00	30.053 
11:00	42.8	42.8	42.8	75	35.4	0	2	68	0.00	30.055 
11:05	43.2	43.2	43.2	73	35.1	0	1	68	0.00	30.055 
11:10	43.8	43.8	43.8	72	35.4	0	2	68	0.00	30.055 
11:15	44.3	44.3	44.3	72	35.9	0	2	68	0.00	30.053 
11:20	45.1	45.1	45.1	69	35.5	0	2	45	0.00	30.053 
11:25	45.7	45.7	45.7	68	35.8	0	2	45	0.00	30.053 
11:30	46.4	46.4	46.4	67	36.0	0	2	45	0.00	30.051 
11:35	46.7	46.7	46.7	64	35.2	1	3	248	0.00	30.051 
11:40	47.3	47.3	47.3	66	36.5	0	1	248	0.00	30.051 
11:45	47.7	47.7	47.7	64	36.1	0	2	248	0.00	30.050 
11:50	48.2	48.2	48.2	63	36.2	0	3	248	0.00	30.050 
11:55	48.6	48.6	48.6	63	36.6	0	2	248	0.00	30.050 
12:00	49.1	49.1	49.1	62	36.6	0	2	248	0.00	30.048 
12:05	49.2	49.2	49.2	62	36.7	1	3	248	0.00	30.048 
12:10	49.4	49.4	49.4	59	35.7	1	2	248	0.00	30.048 
12:15	49.5	49.5	49.5	61	36.6	0	3	248	0.00	30.050 
12:20	49.5	49.5	49.5	58	35.3	2	3	270	0.00	30.050 
12:25	49.8	49.8	49.8	59	36.1	1	2	248	0.01	30.050 
12:30	50.1	50.1	50.1	59	36.3	1	3	248	0.00	30.046 
12:35	50.5	50.5	50.5	60	37.1	0	3	248	0.00	30.046 
12:40	51.0	51.0	51.0	58	36.7	1	3	248	0.00	30.046 
12:45	50.8	50.8	50.8	56	35.7	1	3	270	0.00	30.045 
12:50	50.8	50.8	50.8	57	36.1	0	4	270	0.00	30.045 
12:55	51.0	51.0	51.0	56	35.9	1	3	270	0.00	30.045 
13:00	51.3	51.3	51.3	56	36.1	1	3	270	0.00	30.038 
13:05	51.3	51.3	51.3	57	36.6	0	2	270	0.00	30.038 
13:10	51.4	51.4	51.4	54	35.3	1	4	270	0.00	30.038 
13:15	51.6	51.6	51.6	53	35.0	1	3	270	0.00	30.035 
13:20	51.9	51.9	51.9	52	34.8	1	4	270	0.00	30.035 
13:25	52.0	52.0	52.0	52	34.9	1	3	315	0.00	30.035 
13:30	52.2	52.2	52.2	50	34.1	1	4	248	0.00	30.031 
13:35	51.9	51.9	51.9	50	33.9	1	4	292	0.00	30.031 
13:40	52.0	52.0	52.0	52	34.9	1	4	248	0.00	30.031 
13:45	52.2	52.2	52.2	49	33.6	1	3	248	0.00	30.029 
13:50	52.3	52.3	52.3	48	33.2	1	3	248	0.00	30.029 
13:55	52.8	52.8	52.8	46	32.6	2	5	315	0.00	30.029 
14:00	52.9	52.9	52.9	43	31.0	1	5	270	0.00	30.019 
14:05	53.1	53.1	53.1	43	31.2	0	4	248	0.00	30.019 
14:10	53.1	53.1	53.1	40	29.4	2	5	315	0.00	30.019 
14:15	53.2	53.2	53.2	39	28.9	1	4	292	0.00	30.022 
14:20	53.2	53.2	53.2	40	29.5	2	4	292	0.00	30.022 
14:25	53.5	53.5	53.5	40	29.8	2	5	315	0.00	30.022 
14:30	53.5	53.5	53.5	41	30.4	1	5	315	0.00	30.017 
14:35	53.2	53.2	53.2	41	30.1	2	5	270	0.00	30.017 
14:40	53.3	53.3	53.3	43	31.4	2	6	270	0.00	30.017 
14:45	53.5	53.5	53.5	40	29.8	3	5	270	0.00	30.019 
14:50	53.3	53.3	53.3	41	30.2	1	4	270	0.00	30.019 
14:55	53.6	53.6	53.6	41	30.5	1	4	315	0.00	30.019 
15:00	53.8	53.8	53.8	37	28.1	3	7	270	0.00	30.016 
15:05	53.3	53.3	53.3	38	28.3	2	5	270	0.00	30.016 
15:10	53.1	53.1	53.1	39	28.8	2	4	270	0.00	30.016 
15:15	52.6	52.6	52.6	39	28.4	2	4	270	0.00	30.017 
15:20	52.0	52.0	52.0	42	29.6	2	6	270	0.00	30.017 
15:25	51.6	51.6	51.6	43	29.8	2	5	270	0.00	30.017 
15:30	49.6	47.7	49.6	53	33.2	5	10	315	0.00	30.038 
15:35	48.2	46.8	48.2	57	33.7	4	9	315	0.00	30.038 
15:40	47.1	45.5	47.1	58	33.1	4	7	315	0.00	30.038 
15:45	46.5	44.8	46.5	60	33.4	4	7	315	0.00	30.058 
15:50	46.1	46.1	46.1	64	34.6	3	8	292	0.00	30.058 
15:55	45.5	45.5	45.5	68	35.6	1	5	270	0.00	30.058 
16:00	45.2	45.2	45.2	70	36.0	1	2	270	0.00	30.061 
16:05	45.2	45.2	45.2	71	36.4	0	3	270	0.00	30.061 
16:10	45.7	45.7	45.7	75	38.2	0	0	---	0.00	30.061 
16:15	46.4	46.4	46.4	73	38.2	0	1	270	0.00	30.051 
16:20	47.0	47.0	47.0	68	37.0	0	2	270	0.00	30.051 
16:25	47.6	47.6	47.6	66	36.8	0	2	270	0.00	30.051 
16:30	48.0	48.0	48.0	62	35.6	0	1	270	0.00	30.046 
16:35	48.8	48.8	48.8	61	36.0	1	4	270	0.00	30.046 
16:40	49.2	49.2	49.2	54	33.3	2	4	292	0.00	30.046 
16:45	49.5	49.5	49.5	51	32.1	2	5	292	0.00	30.047 
16:50	49.6	49.6	49.6	50	31.7	1	3	270	0.00	30.047 
16:55	49.6	49.6	49.6	50	31.7	1	4	270	0.00	30.047 
17:00	49.4	49.4	49.4	48	30.5	2	5	315	0.00	30.049 
17:05	49.4	49.4	49.4	49	31.0	1	4	270	0.00	30.049 
17:10	49.4	49.4	49.4	49	31.0	1	4	270	0.00	30.049 
17:15	49.4	49.4	49.4	49	31.0	1	2	338	0.00	30.053 
17:20	49.4	49.4	49.4	50	31.5	1	4	338	0.00	30.053 
17:25	49.5	49.5	49.5	47	30.1	1	3	315	0.00	30.053 
17:30	49.5	49.5	49.5	47	30.1	1	3	338	0.00	30.058 
17:35	49.5	49.5	49.5	46	29.6	1	3	315	0.00	30.058 
17:40	49.5	49.5	49.5	46	29.6	1	4	315	0.00	30.058 
17:45	49.4	49.4	49.4	47	30.0	1	3	270	0.00	30.061 
17:50	49.4	49.4	49.4	46	29.5	1	4	270	0.00	30.061 
17:55	49.2	49.2	49.2	47	29.8	0	2	270	0.00	30.061 
18:00	49.1	49.1	49.1	48	30.3	1	3	270	0.00	30.063 
18:05	48.9	48.9	48.9	48	30.1	0	2	270	0.00	30.063 
18:10	48.8	48.8	48.8	48	30.0	1	3	315	0.00	30.063 
18:15	48.8	48.8	48.8	49	30.5	0	3	315	0.00	30.067 
18:20	48.5	48.5	48.5	50	30.7	0	1	315	0.00	30.067 
18:25	48.3	48.3	48.3	49	30.0	0	2	315	0.00	30.067 
18:30	48.0	48.0	48.0	50	30.3	0	1	315	0.00	30.071 
18:35	47.9	47.9	47.9	50	30.2	0	1	315	0.00	30.071 
18:40	47.6	47.6	47.6	51	30.4	0	0	---	0.00	30.071 
18:45	47.3	47.3	47.3	53	31.0	0	0	---	0.00	30.079 
18:50	46.7	46.7	46.7	53	30.5	0	0	---	0.00	30.079 
18:55	46.2	46.2	46.2	54	30.5	0	0	---	0.00	30.079 
19:00	45.8	45.8	45.8	56	31.0	0	0	---	0.00	30.081 
19:05	45.2	45.2	45.2	57	30.9	0	0	---	0.00	30.081 
19:10	44.6	44.6	44.6	58	30.7	0	0	---	0.00	30.081 
19:15	44.2	44.2	44.2	60	31.2	0	0	---	0.00	30.088 
19:20	43.6	43.6	43.6	62	31.5	0	0	---	0.00	30.088 
19:25	43.1	43.1	43.1	62	31.0	0	0	---	0.00	30.088 
19:30	42.5	42.5	42.5	63	30.8	0	0	---	0.00	30.090 
19:35	42.1	42.1	42.1	64	30.8	0	0	---	0.00	30.090 
19:40	41.6	41.6	41.6	66	31.1	0	0	---	0.00	30.090 
19:45	41.2	41.2	41.2	67	31.1	0	0	---	0.00	30.099 
19:50	40.8	40.8	40.8	68	31.1	0	0	---	0.00	30.099 
19:55	40.3	40.3	40.3	69	31.0	0	0	---	0.00	30.099 
20:00	39.9	39.9	39.9	71	31.3	0	0	---	0.00	30.106 
20:05	39.5	39.5	39.5	72	31.2	0	0	---	0.00	30.106 
20:10	39.1	39.1	39.1	74	31.5	0	0	---	0.00	30.106 
20:15	38.8	38.8	38.8	75	31.6	0	0	---	0.00	30.107 
20:20	38.5	38.5	38.5	76	31.6	0	0	---	0.00	30.107 
20:25	38.2	38.2	38.2	77	31.6	0	0	---	0.00	30.107 
20:30	37.9	37.9	37.9	77	31.3	0	0	---	0.00	30.112 
20:35	37.8	37.8	37.8	78	31.6	0	0	---	0.00	30.112 
20:40	37.5	37.5	37.5	79	31.6	0	0	---	0.00	30.112 
20:45	37.3	37.3	37.3	80	31.7	0	0	---	0.00	30.122 
20:50	37.2	37.2	37.2	80	31.6	0	0	---	0.00	30.122 
20:55	36.9	36.9	36.9	81	31.6	0	0	---	0.00	30.122 
21:00	36.8	36.8	36.8	82	31.8	0	0	---	0.00	30.123 
21:05	36.6	36.6	36.6	82	31.6	0	0	---	0.00	30.123 
21:10	36.5	36.5	36.5	83	31.8	0	0	---	0.00	30.123 
21:15	36.2	36.2	36.2	83	31.5	0	0	---	0.00	30.124 
21:20	36.0	36.0	36.0	84	31.6	0	0	---	0.00	30.124 
21:25	35.9	35.9	35.9	84	31.5	0	0	---	0.00	30.124 
21:30	35.8	35.8	35.8	84	31.4	0	0	---	0.00	30.126 
21:35	35.6	35.6	35.6	84	31.3	0	0	---	0.00	30.126 
21:40	35.5	35.5	35.5	84	31.2	0	0	---	0.00	30.126 
21:45	35.3	35.3	35.3	85	31.2	0	0	---	0.00	30.130 
21:50	35.2	35.2	35.2	85	31.2	0	0	---	0.00	30.130 
21:55	35.0	35.0	35.0	86	31.2	0	0	---	0.00	30.130 
22:00	34.9	34.9	34.9	86	31.1	0	0	---	0.00	30.138 
22:05	34.7	34.7	34.7	86	30.9	0	0	---	0.00	30.138 
22:10	34.6	34.6	34.6	86	30.9	0	0	---	0.00	30.138 
22:15	34.6	34.6	34.6	87	31.1	0	0	---	0.00	30.136 
22:20	34.4	34.4	34.4	87	30.9	0	0	---	0.00	30.136 
22:25	34.3	34.3	34.3	87	30.8	0	0	---	0.00	30.136 
22:30	34.1	34.1	34.1	87	30.6	0	0	---	0.00	30.138 
22:35	34.0	34.0	34.0	87	30.5	0	0	---	0.00	30.138 
22:40	34.0	34.0	34.0	87	30.5	0	0	---	0.00	30.138 
22:45	33.8	33.8	33.8	87	30.3	0	0	---	0.00	30.140 
22:50	33.7	33.7	33.7	88	30.5	0	0	---	0.00	30.140 
22:55	33.5	33.5	33.5	88	30.3	0	0	---	0.00	30.140 
23:00	33.4	33.4	33.4	88	30.2	0	0	---	0.00	30.140 
23:05	33.4	33.4	33.4	88	30.2	0	0	---	0.00	30.140 
23:10	33.4	33.4	33.4	88	30.2	0	0	---	0.00	30.140 
23:15	33.4	33.4	33.4	88	30.2	0	0	---	0.00	30.138 
23:20	33.2	33.2	33.2	88	30.0	0	0	---	0.00	30.138 
23:25	33.2	33.2	33.2	89	30.3	0	0	---	0.00	30.138 
23:30	33.2	33.2	33.2	89	30.3	0	0	---	0.00	30.140 
23:35	33.2	33.2	33.2	89	30.3	0	0	---	0.00	30.140 
23:40	33.1	33.1	33.1	89	30.2	0	0	---	0.00	30.140 
23:45	33.1	33.1	33.1	89	30.2	0	0	---	0.00	30.139 
23:50	32.9	32.9	32.9	89	30.0	0	0	---	0.00	30.139 
23:55	32.8	32.8	32.8	89	29.9	0	0	---	0.00	30.139 

CoCoRaHS
IN-AL-39
A2 Web Hosting
Creative Commons License
GoDaddy
search engine by freefind advanced

loaded 2018-11-17 06:39:08 • last modified 2010-11-18 10:43:29
Privacy PolicyDisclaimer
• wx.awcolley.com is powered by PmWiki v.2002016 •
• all content (unless otherwise noted) © 2018 A W Colley